Aviation Digital Data Service (ADDS)

Output produced by METARs form (0439 UTC 26 June 2019)
found at http://www.aviationweather.gov/metar/data/
 
METAR text: LTAC 260420Z 02014KT CAVOK 21/13 Q1019 BECMG TL0520 VRB02KT
Conditions at: LTAC (ANKARA/ESENBOGA , TR) observed 0420 UTC 26 June 2019
Temperature: 21.0°C (70°F)
Dewpoint: 13.0°C (55°F) [RH = 60%]
Pressure (altimeter): 30.09 inches Hg (1019.0 mb)
Winds: from the NNE (20 degrees) at 16 MPH (14 knots; 7.2 m/s)
Visibility: 6 or more miles (10+ km)
Ceiling: ceiling and visibility are OK
Clouds: unknown
Weather: no significant weather observed at this time

METAR text: LTAC 260350Z 02010KT CAVOK 20/14 Q1019 NOSIG RMK RWY21L 03005KT RWY03L 02008KT RWY21R 03008KT
Conditions at: LTAC (ANKARA/ESENBOGA , TR) observed 0350 UTC 26 June 2019
Temperature: 20.0°C (68°F)
Dewpoint: 14.0°C (57°F) [RH = 68%]
Pressure (altimeter): 30.09 inches Hg (1019.0 mb)
Winds: from the NNE (20 degrees) at 12 MPH (10 knots; 5.1 m/s)
Visibility: 6 or more miles (10+ km)
Ceiling: ceiling and visibility are OK
Clouds: unknown
Weather: no significant weather observed at this time

METAR text: LTAC 260320Z 02011KT CAVOK 19/14 Q1019 NOSIG RMK RWY21L 05005KT RWY03L 03008KT RWY21R 05007KT
Conditions at: LTAC (ANKARA/ESENBOGA , TR) observed 0320 UTC 26 June 2019
Temperature: 19.0°C (66°F)
Dewpoint: 14.0°C (57°F) [RH = 73%]
Pressure (altimeter): 30.09 inches Hg (1019.0 mb)
Winds: from the NNE (20 degrees) at 13 MPH (11 knots; 5.7 m/s)
Visibility: 6 or more miles (10+ km)
Ceiling: ceiling and visibility are OK
Clouds: unknown
Weather: no significant weather observed at this time

METAR text: LTAC 260250Z 03010KT CAVOK 19/14 Q1019 NOSIG RMK RWY21L 02008KT RWY03L 03008KT RWY21R 03009KT
Conditions at: LTAC (ANKARA/ESENBOGA , TR) observed 0250 UTC 26 June 2019
Temperature: 19.0°C (66°F)
Dewpoint: 14.0°C (57°F) [RH = 73%]
Pressure (altimeter): 30.09 inches Hg (1019.0 mb)
Winds: from the NNE (30 degrees) at 12 MPH (10 knots; 5.1 m/s)
Visibility: 6 or more miles (10+ km)
Ceiling: ceiling and visibility are OK
Clouds: unknown
Weather: no significant weather observed at this time

METAR text: LTAC 260220Z 02011KT CAVOK 19/14 Q1019 NOSIG RMK RWY21L 02008KT RWY03L 02007KT RWY21R 03009KT
Conditions at: LTAC (ANKARA/ESENBOGA , TR) observed 0220 UTC 26 June 2019
Temperature: 19.0°C (66°F)
Dewpoint: 14.0°C (57°F) [RH = 73%]
Pressure (altimeter): 30.09 inches Hg (1019.0 mb)
Winds: from the NNE (20 degrees) at 13 MPH (11 knots; 5.7 m/s)
Visibility: 6 or more miles (10+ km)
Ceiling: ceiling and visibility are OK
Clouds: unknown
Weather: no significant weather observed at this time

METAR text: LTAC 260150Z 02010KT CAVOK 19/14 Q1019 NOSIG RMK RWY21L 03006KT RWY03L 02007KT RWY21R 03007KT
Conditions at: LTAC (ANKARA/ESENBOGA , TR) observed 0150 UTC 26 June 2019
Temperature: 19.0°C (66°F)
Dewpoint: 14.0°C (57°F) [RH = 73%]
Pressure (altimeter): 30.09 inches Hg (1019.0 mb)
Winds: from the NNE (20 degrees) at 12 MPH (10 knots; 5.1 m/s)
Visibility: 6 or more miles (10+ km)
Ceiling: ceiling and visibility are OK
Clouds: unknown
Weather: no significant weather observed at this time

METAR text: LTAC 260120Z 02011KT CAVOK 19/15 Q1019 NOSIG RMK RWY21L 01007KT RWY03L 02008KT RWY21R 02008KT
Conditions at: LTAC (ANKARA/ESENBOGA , TR) observed 0120 UTC 26 June 2019
Temperature: 19.0°C (66°F)
Dewpoint: 15.0°C (59°F) [RH = 78%]
Pressure (altimeter): 30.09 inches Hg (1019.0 mb)
Winds: from the NNE (20 degrees) at 13 MPH (11 knots; 5.7 m/s)
Visibility: 6 or more miles (10+ km)
Ceiling: ceiling and visibility are OK
Clouds: unknown
Weather: no significant weather observed at this time

METAR text: LTAC 260050Z 02011KT CAVOK 20/14 Q1019 NOSIG RMK RWY21L 02007KT RWY03L 02010KT RWY21R 03008KT
Conditions at: LTAC (ANKARA/ESENBOGA , TR) observed 0050 UTC 26 June 2019
Temperature: 20.0°C (68°F)
Dewpoint: 14.0°C (57°F) [RH = 68%]
Pressure (altimeter): 30.09 inches Hg (1019.0 mb)
Winds: from the NNE (20 degrees) at 13 MPH (11 knots; 5.7 m/s)
Visibility: 6 or more miles (10+ km)
Ceiling: ceiling and visibility are OK
Clouds: unknown
Weather: no significant weather observed at this time

METAR text: LTAC 260020Z 01012KT CAVOK 20/15 Q1019 NOSIG RMK RWY21L 01008KT RWY03L 01009KT RWY21R 02008KT
Conditions at: LTAC (ANKARA/ESENBOGA , TR) observed 0020 UTC 26 June 2019
Temperature: 20.0°C (68°F)
Dewpoint: 15.0°C (59°F) [RH = 73%]
Pressure (altimeter): 30.09 inches Hg (1019.0 mb)
Winds: from the N (10 degrees) at 14 MPH (12 knots; 6.2 m/s)
Visibility: 6 or more miles (10+ km)
Ceiling: ceiling and visibility are OK
Clouds: unknown
Weather: no significant weather observed at this time

METAR text: LTAC 252350Z 02011KT CAVOK 20/15 Q1019 NOSIG RMK RWY21L 01010KT RWY03L 02009KT RWY21R 03010KT
Conditions at: LTAC (ANKARA/ESENBOGA , TR) observed 2350 UTC 25 June 2019
Temperature: 20.0°C (68°F)
Dewpoint: 15.0°C (59°F) [RH = 73%]
Pressure (altimeter): 30.09 inches Hg (1019.0 mb)
Winds: from the NNE (20 degrees) at 13 MPH (11 knots; 5.7 m/s)
Visibility: 6 or more miles (10+ km)
Ceiling: ceiling and visibility are OK
Clouds: unknown
Weather: no significant weather observed at this time

METAR text: LTAC 252320Z 03011KT CAVOK 21/15 Q1019 NOSIG RMK RWY21L 01008KT RWY03L 04009KT RWY21R 02010KT
Conditions at: LTAC (ANKARA/ESENBOGA , TR) observed 2320 UTC 25 June 2019
Temperature: 21.0°C (70°F)
Dewpoint: 15.0°C (59°F) [RH = 69%]
Pressure (altimeter): 30.09 inches Hg (1019.0 mb)
Winds: from the NNE (30 degrees) at 13 MPH (11 knots; 5.7 m/s)
Visibility: 6 or more miles (10+ km)
Ceiling: ceiling and visibility are OK
Clouds: unknown
Weather: no significant weather observed at this time

METAR text: LTAC 252250Z 01010KT CAVOK 21/15 Q1019 NOSIG RMK RWY21L 36009KT RWY03L 01008KT RWY21R 01010KT
Conditions at: LTAC (ANKARA/ESENBOGA , TR) observed 2250 UTC 25 June 2019
Temperature: 21.0°C (70°F)
Dewpoint: 15.0°C (59°F) [RH = 69%]
Pressure (altimeter): 30.09 inches Hg (1019.0 mb)
Winds: from the N (10 degrees) at 12 MPH (10 knots; 5.1 m/s)
Visibility: 6 or more miles (10+ km)
Ceiling: ceiling and visibility are OK
Clouds: unknown
Weather: no significant weather observed at this time

METAR text: LTAC 252220Z 03008KT CAVOK 21/15 Q1019 NOSIG RMK RWY21L 02009KT RWY03L 03007KT RWY21R 03010KT
Conditions at: LTAC (ANKARA/ESENBOGA , TR) observed 2220 UTC 25 June 2019
Temperature: 21.0°C (70°F)
Dewpoint: 15.0°C (59°F) [RH = 69%]
Pressure (altimeter): 30.09 inches Hg (1019.0 mb)
Winds: from the NNE (30 degrees) at 9 MPH (8 knots; 4.1 m/s)
Visibility: 6 or more miles (10+ km)
Ceiling: ceiling and visibility are OK
Clouds: unknown
Weather: no significant weather observed at this time

METAR text: LTAC 252150Z 02009KT CAVOK 21/14 Q1019 NOSIG RMK RWY21L 02010KT RWY03L 02007KT RWY21R 03011KT
Conditions at: LTAC (ANKARA/ESENBOGA , TR) observed 2150 UTC 25 June 2019
Temperature: 21.0°C (70°F)
Dewpoint: 14.0°C (57°F) [RH = 64%]
Pressure (altimeter): 30.09 inches Hg (1019.0 mb)
Winds: from the NNE (20 degrees) at 10 MPH (9 knots; 4.6 m/s)
Visibility: 6 or more miles (10+ km)
Ceiling: ceiling and visibility are OK
Clouds: unknown
Weather: no significant weather observed at this time

METAR text: LTAC 252120Z 02007KT CAVOK 21/14 Q1019 NOSIG RMK RWY21L 02007KT RWY03L 02006KT RWY21R 02007KT
Conditions at: LTAC (ANKARA/ESENBOGA , TR) observed 2120 UTC 25 June 2019
Temperature: 21.0°C (70°F)
Dewpoint: 14.0°C (57°F) [RH = 64%]
Pressure (altimeter): 30.09 inches Hg (1019.0 mb)
Winds: from the NNE (20 degrees) at 8 MPH (7 knots; 3.6 m/s)
Visibility: 6 or more miles (10+ km)
Ceiling: ceiling and visibility are OK
Clouds: unknown
Weather: no significant weather observed at this time

METAR text: LTAC 252050Z 02008KT CAVOK 21/14 Q1019 NOSIG RMK RWY21L 02010KT RWY03L 01007KT RWY21R 02010KT
Conditions at: LTAC (ANKARA/ESENBOGA , TR) observed 2050 UTC 25 June 2019
Temperature: 21.0°C (70°F)
Dewpoint: 14.0°C (57°F) [RH = 64%]
Pressure (altimeter): 30.09 inches Hg (1019.0 mb)
Winds: from the NNE (20 degrees) at 9 MPH (8 knots; 4.1 m/s)
Visibility: 6 or more miles (10+ km)
Ceiling: ceiling and visibility are OK
Clouds: unknown
Weather: no significant weather observed at this time

METAR text: LTAC 252020Z 36007KT CAVOK 21/14 Q1018 NOSIG RMK RWY21L 36007KT RWY03L 01005KT RWY21R 01008KT
Conditions at: LTAC (ANKARA/ESENBOGA , TR) observed 2020 UTC 25 June 2019
Temperature: 21.0°C (70°F)
Dewpoint: 14.0°C (57°F) [RH = 64%]
Pressure (altimeter): 30.06 inches Hg (1018.0 mb)
Winds: from the N (360 degrees) at 8 MPH (7 knots; 3.6 m/s)
Visibility: 6 or more miles (10+ km)
Ceiling: ceiling and visibility are OK
Clouds: unknown
Weather: no significant weather observed at this time

METAR text: LTAC 251950Z 36007KT CAVOK 22/14 Q1018 NOSIG RMK RWY21L 34004KT 320V020 RWY03L 36005KT RWY21R 36005KT 320V030
Conditions at: LTAC (ANKARA/ESENBOGA , TR) observed 1950 UTC 25 June 2019
Temperature: 22.0°C (72°F)
Dewpoint: 14.0°C (57°F) [RH = 60%]
Pressure (altimeter): 30.06 inches Hg (1018.0 mb)
Winds: from the N (360 degrees) at 8 MPH (7 knots; 3.6 m/s)
Visibility: 6 or more miles (10+ km)
Ceiling: ceiling and visibility are OK
Clouds: unknown
Weather: no significant weather observed at this time

METAR text: LTAC 251920Z 02005KT 350V050 CAVOK 22/14 Q1018 NOSIG RMK RWY21L VRB02KT RWY03L 03004KT 360V070 RWY21R 06004KT
Conditions at: LTAC (ANKARA/ESENBOGA , TR) observed 1920 UTC 25 June 2019
Temperature: 22.0°C (72°F)
Dewpoint: 14.0°C (57°F) [RH = 60%]
Pressure (altimeter): 30.06 inches Hg (1018.0 mb)
Winds: from the NNE (20 degrees) at 6 MPH (5 knots; 2.6 m/s)
Visibility: 6 or more miles (10+ km)
Ceiling: ceiling and visibility are OK
Clouds: unknown
Weather: no significant weather observed at this time

METAR text: LTAC 251850Z 06005KT CAVOK 23/13 Q1018 NOSIG RMK RWY21L 02007KT RWY03L 07004KT RWY21R 01009KT
Conditions at: LTAC (ANKARA/ESENBOGA , TR) observed 1850 UTC 25 June 2019
Temperature: 23.0°C (73°F)
Dewpoint: 13.0°C (55°F) [RH = 53%]
Pressure (altimeter): 30.06 inches Hg (1018.0 mb)
Winds: from the ENE (60 degrees) at 6 MPH (5 knots; 2.6 m/s)
Visibility: 6 or more miles (10+ km)
Ceiling: ceiling and visibility are OK
Clouds: unknown
Weather: no significant weather observed at this time

METAR text: LTAC 251820Z 04008KT CAVOK 23/14 Q1018 NOSIG RMK RWY21L 03009KT RWY03L 03008KT RWY21R 02008KT
Conditions at: LTAC (ANKARA/ESENBOGA , TR) observed 1820 UTC 25 June 2019
Temperature: 23.0°C (73°F)
Dewpoint: 14.0°C (57°F) [RH = 57%]
Pressure (altimeter): 30.06 inches Hg (1018.0 mb)
Winds: from the NE (40 degrees) at 9 MPH (8 knots; 4.1 m/s)
Visibility: 6 or more miles (10+ km)
Ceiling: ceiling and visibility are OK
Clouds: unknown
Weather: no significant weather observed at this time

METAR text: LTAC 251750Z 03009KT 9999 FEW040 24/14 Q1017 NOSIG RMK RWY21L 01009KT RWY03L 01009KT RWY21R 02009KT
Conditions at: LTAC (ANKARA/ESENBOGA , TR) observed 1750 UTC 25 June 2019
Temperature: 24.0°C (75°F)
Dewpoint: 14.0°C (57°F) [RH = 54%]
Pressure (altimeter): 30.03 inches Hg (1017.0 mb)
Winds: from the NNE (30 degrees) at 10 MPH (9 knots; 4.6 m/s)
Visibility: 6 or more miles (10+ km)
Ceiling: at least 12,000 feet AGL
Clouds: few clouds at 4000 feet AGL
Weather: no significant weather observed at this time

METAR text: LTAC 251720Z 01011KT 9999 FEW040 25/13 Q1017 NOSIG RMK RWY21L 36009KT RWY03L 01011KT RWY21R 01010KT
Conditions at: LTAC (ANKARA/ESENBOGA , TR) observed 1720 UTC 25 June 2019
Temperature: 25.0°C (77°F)
Dewpoint: 13.0°C (55°F) [RH = 47%]
Pressure (altimeter): 30.03 inches Hg (1017.0 mb)
Winds: from the N (10 degrees) at 13 MPH (11 knots; 5.7 m/s)
Visibility: 6 or more miles (10+ km)
Ceiling: at least 12,000 feet AGL
Clouds: few clouds at 4000 feet AGL
Weather: no significant weather observed at this time

METAR text: LTAC 251650Z 01010KT 9999 FEW040 27/14 Q1017 NOSIG RMK RWY21L 35010KT RWY03L 36011KT RWY21R 36011KT
Conditions at: LTAC (ANKARA/ESENBOGA , TR) observed 1650 UTC 25 June 2019
Temperature: 27.0°C (81°F)
Dewpoint: 14.0°C (57°F) [RH = 45%]
Pressure (altimeter): 30.03 inches Hg (1017.0 mb)
Winds: from the N (10 degrees) at 12 MPH (10 knots; 5.1 m/s)
Visibility: 6 or more miles (10+ km)
Ceiling: at least 12,000 feet AGL
Clouds: few clouds at 4000 feet AGL
Weather: no significant weather observed at this time

METAR text: LTAC 251620Z 06009KT 9999 FEW040 29/09 Q1017 NOSIG RMK RWY21L 05008KT RWY03L 06009KT RWY21R 05008KT
Conditions at: LTAC (ANKARA/ESENBOGA , TR) observed 1620 UTC 25 June 2019
Temperature: 29.0°C (84°F)
Dewpoint: 9.0°C (48°F) [RH = 29%]
Pressure (altimeter): 30.03 inches Hg (1017.0 mb)
Winds: from the ENE (60 degrees) at 10 MPH (9 knots; 4.6 m/s)
Visibility: 6 or more miles (10+ km)
Ceiling: at least 12,000 feet AGL
Clouds: few clouds at 4000 feet AGL
Weather: no significant weather observed at this time

METAR text: LTAC 251550Z 05009KT 9999 FEW040 29/09 Q1017 NOSIG RMK RWY21L 06008KT RWY03L 07008KT RWY21R 06008KT
Conditions at: LTAC (ANKARA/ESENBOGA , TR) observed 1550 UTC 25 June 2019
Temperature: 29.0°C (84°F)
Dewpoint: 9.0°C (48°F) [RH = 29%]
Pressure (altimeter): 30.03 inches Hg (1017.0 mb)
Winds: from the NE (50 degrees) at 10 MPH (9 knots; 4.6 m/s)
Visibility: 6 or more miles (10+ km)
Ceiling: at least 12,000 feet AGL
Clouds: few clouds at 4000 feet AGL
Weather: no significant weather observed at this time

METAR text: LTAC 251520Z 08007KT 030V110 9999 FEW040 30/10 Q1016 NOSIG RMK RWY21L 05007KT 360V070 RWY03L 07006KT 020V100 RWY21R 07004KT 050V120
Conditions at: LTAC (ANKARA/ESENBOGA , TR) observed 1520 UTC 25 June 2019
Temperature: 30.0°C (86°F)
Dewpoint: 10.0°C (50°F) [RH = 29%]
Pressure (altimeter): 30.00 inches Hg (1016.0 mb)
Winds: from the E (80 degrees) at 8 MPH (7 knots; 3.6 m/s)
Visibility: 6 or more miles (10+ km)
Ceiling: at least 12,000 feet AGL
Clouds: few clouds at 4000 feet AGL
Weather: no significant weather observed at this time

METAR text: LTAC 251450Z 04006KT 360V080 9999 FEW040 30/10 Q1016 NOSIG RMK RWY21L 09004KT 040V160 RWY03L 03004KT 350V100 RWY21R VRB02KT
Conditions at: LTAC (ANKARA/ESENBOGA , TR) observed 1450 UTC 25 June 2019
Temperature: 30.0°C (86°F)
Dewpoint: 10.0°C (50°F) [RH = 29%]
Pressure (altimeter): 30.00 inches Hg (1016.0 mb)
Winds: from the NE (40 degrees) at 7 MPH (6 knots; 3.1 m/s)
Visibility: 6 or more miles (10+ km)
Ceiling: at least 12,000 feet AGL
Clouds: few clouds at 4000 feet AGL
Weather: no significant weather observed at this time

METAR text: LTAC 251420Z 11005KT 040V180 9999 SCT040 30/11 Q1016 NOSIG RMK RWY21L 07006KT 030V130 RWY03L 06006KT 020V120 RWY21R 07007KT 030V100
Conditions at: LTAC (ANKARA/ESENBOGA , TR) observed 1420 UTC 25 June 2019
Temperature: 30.0°C (86°F)
Dewpoint: 11.0°C (52°F) [RH = 31%]
Pressure (altimeter): 30.00 inches Hg (1016.0 mb)
Winds: from the ESE (110 degrees) at 6 MPH (5 knots; 2.6 m/s)
Visibility: 6 or more miles (10+ km)
Ceiling: at least 12,000 feet AGL
Clouds: scattered clouds at 4000 feet AGL
Weather: no significant weather observed at this time

METAR text: LTAC 251350Z VRB05KT 9999 SCT040 31/09 Q1016 NOSIG RMK RWY21L 10006KT 060V150 RWY03L VRB03KT RWY21R VRB04KT
Conditions at: LTAC (ANKARA/ESENBOGA , TR) observed 1350 UTC 25 June 2019
Temperature: 31.0°C (88°F)
Dewpoint: 9.0°C (48°F) [RH = 26%]
Pressure (altimeter): 30.00 inches Hg (1016.0 mb)
Winds: variable direction winds at 6 MPH (5 knots; 2.6 m/s)
Visibility: 6 or more miles (10+ km)
Ceiling: at least 12,000 feet AGL
Clouds: scattered clouds at 4000 feet AGL
Weather: no significant weather observed at this time

METAR text: LTAC 251320Z 15005KT 9999 SCT040 30/10 Q1016 NOSIG RMK RWY21L 03005KT 340V070 RWY03L VRB03KT RWY21R 10004KT 330V140
Conditions at: LTAC (ANKARA/ESENBOGA , TR) observed 1320 UTC 25 June 2019
Temperature: 30.0°C (86°F)
Dewpoint: 10.0°C (50°F) [RH = 29%]
Pressure (altimeter): 30.00 inches Hg (1016.0 mb)
Winds: from the SSE (150 degrees) at 6 MPH (5 knots; 2.6 m/s)
Visibility: 6 or more miles (10+ km)
Ceiling: at least 12,000 feet AGL
Clouds: scattered clouds at 4000 feet AGL
Weather: no significant weather observed at this time

METAR text: LTAC 251250Z 12007KT 9999 SCT040 30/09 Q1017 NOSIG RMK RWY21L 09005KT 020V160 RWY03L VRB05KT RWY21R 06007KT 010V110
Conditions at: LTAC (ANKARA/ESENBOGA , TR) observed 1250 UTC 25 June 2019
Temperature: 30.0°C (86°F)
Dewpoint: 9.0°C (48°F) [RH = 27%]
Pressure (altimeter): 30.03 inches Hg (1017.0 mb)
Winds: from the ESE (120 degrees) at 8 MPH (7 knots; 3.6 m/s)
Visibility: 6 or more miles (10+ km)
Ceiling: at least 12,000 feet AGL
Clouds: scattered clouds at 4000 feet AGL
Weather: no significant weather observed at this time

METAR text: LTAC 251220Z 06006KT 350V100 9999 SCT040 30/11 Q1017 NOSIG RMK RWY21L VRB05KT RWY03L 10004KT 060V160 RWY21R 17005KT 110V230
Conditions at: LTAC (ANKARA/ESENBOGA , TR) observed 1220 UTC 25 June 2019
Temperature: 30.0°C (86°F)
Dewpoint: 11.0°C (52°F) [RH = 31%]
Pressure (altimeter): 30.03 inches Hg (1017.0 mb)
Winds: from the ENE (60 degrees) at 7 MPH (6 knots; 3.1 m/s)
Visibility: 6 or more miles (10+ km)
Ceiling: at least 12,000 feet AGL
Clouds: scattered clouds at 4000 feet AGL
Weather: no significant weather observed at this time

METAR text: LTAC 251150Z 07006KT 030V120 9999 SCT040 30/11 Q1017 NOSIG RMK RWY21L VRB05KT RWY03L 07007KT 030V140 RWY21R 05006KT 020V130
Conditions at: LTAC (ANKARA/ESENBOGA , TR) observed 1150 UTC 25 June 2019
Temperature: 30.0°C (86°F)
Dewpoint: 11.0°C (52°F) [RH = 31%]
Pressure (altimeter): 30.03 inches Hg (1017.0 mb)
Winds: from the ENE (70 degrees) at 7 MPH (6 knots; 3.1 m/s)
Visibility: 6 or more miles (10+ km)
Ceiling: at least 12,000 feet AGL
Clouds: scattered clouds at 4000 feet AGL
Weather: no significant weather observed at this time

METAR text: LTAC 251120Z 14006KT 030V190 9999 SCT040 29/10 Q1017 NOSIG RMK RWY21L 08007KT 050V120 RWY03L VRB03KT RWY21R 12006KT 070V230
Conditions at: LTAC (ANKARA/ESENBOGA , TR) observed 1120 UTC 25 June 2019
Temperature: 29.0°C (84°F)
Dewpoint: 10.0°C (50°F) [RH = 31%]
Pressure (altimeter): 30.03 inches Hg (1017.0 mb)
Winds: from the SE (140 degrees) at 7 MPH (6 knots; 3.1 m/s)
Visibility: 6 or more miles (10+ km)
Ceiling: at least 12,000 feet AGL
Clouds: scattered clouds at 4000 feet AGL
Weather: no significant weather observed at this time

METAR text: LTAC 251050Z VRB06KT 9999 SCT040 29/11 Q1017 NOSIG RMK RWY21L 08008KT 050V110 RWY03L VRB02KT RWY21R VRB06KT
Conditions at: LTAC (ANKARA/ESENBOGA , TR) observed 1050 UTC 25 June 2019
Temperature: 29.0°C (84°F)
Dewpoint: 11.0°C (52°F) [RH = 33%]
Pressure (altimeter): 30.03 inches Hg (1017.0 mb)
Winds: variable direction winds at 7 MPH (6 knots; 3.1 m/s)
Visibility: 6 or more miles (10+ km)
Ceiling: at least 12,000 feet AGL
Clouds: scattered clouds at 4000 feet AGL
Weather: no significant weather observed at this time

METAR text: LTAC 251020Z VRB04KT 9999 SCT040 29/11 Q1017 NOSIG RMK RWY21L VRB06KT RWY03L VRB04KT RWY21R VRB05KT
Conditions at: LTAC (ANKARA/ESENBOGA , TR) observed 1020 UTC 25 June 2019
Temperature: 29.0°C (84°F)
Dewpoint: 11.0°C (52°F) [RH = 33%]
Pressure (altimeter): 30.03 inches Hg (1017.0 mb)
Winds: variable direction winds at 5 MPH (4 knots; 2.1 m/s)
Visibility: 6 or more miles (10+ km)
Ceiling: at least 12,000 feet AGL
Clouds: scattered clouds at 4000 feet AGL
Weather: no significant weather observed at this time

METAR text: LTAC 250950Z VRB05KT 9999 SCT040 29/10 Q1017 NOSIG RMK RWY21L VRB04KT RWY03L 05004KT 350V120 RWY21R VRB04KT
Conditions at: LTAC (ANKARA/ESENBOGA , TR) observed 0950 UTC 25 June 2019
Temperature: 29.0°C (84°F)
Dewpoint: 10.0°C (50°F) [RH = 31%]
Pressure (altimeter): 30.03 inches Hg (1017.0 mb)
Winds: variable direction winds at 6 MPH (5 knots; 2.6 m/s)
Visibility: 6 or more miles (10+ km)
Ceiling: at least 12,000 feet AGL
Clouds: scattered clouds at 4000 feet AGL
Weather: no significant weather observed at this time

METAR text: LTAC 250920Z 06004KT 360V120 9999 SCT040 29/11 Q1017 NOSIG RMK RWY21L 12006KT 070V170 RWY03L VRB04KT RWY21R VRB05KT
Conditions at: LTAC (ANKARA/ESENBOGA , TR) observed 0920 UTC 25 June 2019
Temperature: 29.0°C (84°F)
Dewpoint: 11.0°C (52°F) [RH = 33%]
Pressure (altimeter): 30.03 inches Hg (1017.0 mb)
Winds: from the ENE (60 degrees) at 5 MPH (4 knots; 2.1 m/s)
Visibility: 6 or more miles (10+ km)
Ceiling: at least 12,000 feet AGL
Clouds: scattered clouds at 4000 feet AGL
Weather: no significant weather observed at this time

METAR text: LTAC 250850Z 35004KT 9999 SCT040 27/12 Q1018 NOSIG RMK RWY21L VRB03KT RWY03L VRB03KT RWY21R VRB04KT
Conditions at: LTAC (ANKARA/ESENBOGA , TR) observed 0850 UTC 25 June 2019
Temperature: 27.0°C (81°F)
Dewpoint: 12.0°C (54°F) [RH = 39%]
Pressure (altimeter): 30.06 inches Hg (1018.0 mb)
Winds: from the N (350 degrees) at 5 MPH (4 knots; 2.1 m/s)
Visibility: 6 or more miles (10+ km)
Ceiling: at least 12,000 feet AGL
Clouds: scattered clouds at 4000 feet AGL
Weather: no significant weather observed at this time

METAR text: LTAC 250820Z 35005KT 280V040 9999 FEW040 27/12 Q1018 NOSIG RMK RWY21L VRB04KT RWY03L 15004KT 100V210 RWY21R VRB03KT
Conditions at: LTAC (ANKARA/ESENBOGA , TR) observed 0820 UTC 25 June 2019
Temperature: 27.0°C (81°F)
Dewpoint: 12.0°C (54°F) [RH = 39%]
Pressure (altimeter): 30.06 inches Hg (1018.0 mb)
Winds: from the N (350 degrees) at 6 MPH (5 knots; 2.6 m/s)
Visibility: 6 or more miles (10+ km)
Ceiling: at least 12,000 feet AGL
Clouds: few clouds at 4000 feet AGL
Weather: no significant weather observed at this time

METAR text: LTAC 250750Z 34004KT 9999 FEW040 27/13 Q1018 NOSIG RMK RWY21L VRB03KT RWY03L 26002KT RWY21R VRB04KT
Conditions at: LTAC (ANKARA/ESENBOGA , TR) observed 0750 UTC 25 June 2019
Temperature: 27.0°C (81°F)
Dewpoint: 13.0°C (55°F) [RH = 42%]
Pressure (altimeter): 30.06 inches Hg (1018.0 mb)
Winds: from the NNW (340 degrees) at 5 MPH (4 knots; 2.1 m/s)
Visibility: 6 or more miles (10+ km)
Ceiling: at least 12,000 feet AGL
Clouds: few clouds at 4000 feet AGL
Weather: no significant weather observed at this time

METAR text: LTAC 250720Z 06004KT 030V090 9999 FEW040 26/13 Q1018 NOSIG RMK RWY21L 08005KT 030V110 RWY03L 04004KT 330V130 RWY21R 04008KT 350V110
Conditions at: LTAC (ANKARA/ESENBOGA , TR) observed 0720 UTC 25 June 2019
Temperature: 26.0°C (79°F)
Dewpoint: 13.0°C (55°F) [RH = 45%]
Pressure (altimeter): 30.06 inches Hg (1018.0 mb)
Winds: from the ENE (60 degrees) at 5 MPH (4 knots; 2.1 m/s)
Visibility: 6 or more miles (10+ km)
Ceiling: at least 12,000 feet AGL
Clouds: few clouds at 4000 feet AGL
Weather: no significant weather observed at this time

METAR text: LTAC 250650Z 01005KT CAVOK 25/14 Q1018 NOSIG RMK RWY21L 04006KT 340V100 RWY03L 02004KT 330V100 RWY21R 03007KT 350V060
Conditions at: LTAC (ANKARA/ESENBOGA , TR) observed 0650 UTC 25 June 2019
Temperature: 25.0°C (77°F)
Dewpoint: 14.0°C (57°F) [RH = 50%]
Pressure (altimeter): 30.06 inches Hg (1018.0 mb)
Winds: from the N (10 degrees) at 6 MPH (5 knots; 2.6 m/s)
Visibility: 6 or more miles (10+ km)
Ceiling: ceiling and visibility are OK
Clouds: unknown
Weather: no significant weather observed at this time

METAR text: LTAC 250620Z 06006KT CAVOK 24/14 Q1018 NOSIG RMK RWY21L 08005KT 020V150 RWY03L 06006KT 030V100 RWY21R 07006KT 020V110
Conditions at: LTAC (ANKARA/ESENBOGA , TR) observed 0620 UTC 25 June 2019
Temperature: 24.0°C (75°F)
Dewpoint: 14.0°C (57°F) [RH = 54%]
Pressure (altimeter): 30.06 inches Hg (1018.0 mb)
Winds: from the ENE (60 degrees) at 7 MPH (6 knots; 3.1 m/s)
Visibility: 6 or more miles (10+ km)
Ceiling: ceiling and visibility are OK
Clouds: unknown
Weather: no significant weather observed at this time

METAR text: LTAC 250550Z 05007KT 340V090 CAVOK 24/14 Q1018 NOSIG RMK RWY21L 05006KT 010V100 RWY03L 04004KT 320V090 RWY21R 04007KT 360V070
Conditions at: LTAC (ANKARA/ESENBOGA , TR) observed 0550 UTC 25 June 2019
Temperature: 24.0°C (75°F)
Dewpoint: 14.0°C (57°F) [RH = 54%]
Pressure (altimeter): 30.06 inches Hg (1018.0 mb)
Winds: from the NE (50 degrees) at 8 MPH (7 knots; 3.6 m/s)
Visibility: 6 or more miles (10+ km)
Ceiling: ceiling and visibility are OK
Clouds: unknown
Weather: no significant weather observed at this time

METAR text: LTAC 250520Z 03008KT 360V060 CAVOK 23/14 Q1018 NOSIG RMK RWY21L 02006KT 330V050 RWY03L 01006KT RWY21R 02008KT 350V050
Conditions at: LTAC (ANKARA/ESENBOGA , TR) observed 0520 UTC 25 June 2019
Temperature: 23.0°C (73°F)
Dewpoint: 14.0°C (57°F) [RH = 57%]
Pressure (altimeter): 30.06 inches Hg (1018.0 mb)
Winds: from the NNE (30 degrees) at 9 MPH (8 knots; 4.1 m/s)
Visibility: 6 or more miles (10+ km)
Ceiling: ceiling and visibility are OK
Clouds: unknown
Weather: no significant weather observed at this time

METAR text: LTAC 250450Z 01008KT CAVOK 22/14 Q1018 NOSIG RMK RWY21L 36008KT RWY03L 36007KT RWY21R 01009KT
Conditions at: LTAC (ANKARA/ESENBOGA , TR) observed 0450 UTC 25 June 2019
Temperature: 22.0°C (72°F)
Dewpoint: 14.0°C (57°F) [RH = 60%]
Pressure (altimeter): 30.06 inches Hg (1018.0 mb)
Winds: from the N (10 degrees) at 9 MPH (8 knots; 4.1 m/s)
Visibility: 6 or more miles (10+ km)
Ceiling: ceiling and visibility are OK
Clouds: unknown
Weather: no significant weather observed at this time

METAR text: LTAC 250420Z 15004KT 100V200 CAVOK 19/14 Q1018 NOSIG RMK RWY21L 36009KT RWY03L 01006KT RWY21R 01008KT
Conditions at: LTAC (ANKARA/ESENBOGA , TR) observed 0420 UTC 25 June 2019
Temperature: 19.0°C (66°F)
Dewpoint: 14.0°C (57°F) [RH = 73%]
Pressure (altimeter): 30.06 inches Hg (1018.0 mb)
Winds: from the SSE (150 degrees) at 5 MPH (4 knots; 2.1 m/s)
Visibility: 6 or more miles (10+ km)
Ceiling: ceiling and visibility are OK
Clouds: unknown
Weather: no significant weather observed at this time

METAR text: LTAC 250350Z 01007KT CAVOK 19/14 Q1018 NOSIG RMK RWY21L 01006KT RWY03L 01007KT RWY21R 02006KT
Conditions at: LTAC (ANKARA/ESENBOGA , TR) observed 0350 UTC 25 June 2019
Temperature: 19.0°C (66°F)
Dewpoint: 14.0°C (57°F) [RH = 73%]
Pressure (altimeter): 30.06 inches Hg (1018.0 mb)
Winds: from the N (10 degrees) at 8 MPH (7 knots; 3.6 m/s)
Visibility: 6 or more miles (10+ km)
Ceiling: ceiling and visibility are OK
Clouds: unknown
Weather: no significant weather observed at this time

METAR text: LTAC 250320Z 01007KT CAVOK 18/14 Q1018 NOSIG RMK RWY21L 02006KT RWY03L 01006KT RWY21R 02005KT
Conditions at: LTAC (ANKARA/ESENBOGA , TR) observed 0320 UTC 25 June 2019
Temperature: 18.0°C (64°F)
Dewpoint: 14.0°C (57°F) [RH = 77%]
Pressure (altimeter): 30.06 inches Hg (1018.0 mb)
Winds: from the N (10 degrees) at 8 MPH (7 knots; 3.6 m/s)
Visibility: 6 or more miles (10+ km)
Ceiling: ceiling and visibility are OK
Clouds: unknown
Weather: no significant weather observed at this time

METAR text: LTAC 250250Z 02008KT CAVOK 16/13 Q1017 NOSIG RMK RWY21L 03005KT 360V060 RWY03L 02006KT RWY21R 02006KT
Conditions at: LTAC (ANKARA/ESENBOGA , TR) observed 0250 UTC 25 June 2019
Temperature: 16.0°C (61°F)
Dewpoint: 13.0°C (55°F) [RH = 82%]
Pressure (altimeter): 30.03 inches Hg (1017.0 mb)
Winds: from the NNE (20 degrees) at 9 MPH (8 knots; 4.1 m/s)
Visibility: 6 or more miles (10+ km)
Ceiling: ceiling and visibility are OK
Clouds: unknown
Weather: no significant weather observed at this time

METAR text: LTAC 250220Z 03007KT CAVOK 16/13 Q1017 NOSIG RMK RWY21L 36006KT RWY03L 02007KT RWY21R 01006KT
Conditions at: LTAC (ANKARA/ESENBOGA , TR) observed 0220 UTC 25 June 2019
Temperature: 16.0°C (61°F)
Dewpoint: 13.0°C (55°F) [RH = 82%]
Pressure (altimeter): 30.03 inches Hg (1017.0 mb)
Winds: from the NNE (30 degrees) at 8 MPH (7 knots; 3.6 m/s)
Visibility: 6 or more miles (10+ km)
Ceiling: ceiling and visibility are OK
Clouds: unknown
Weather: no significant weather observed at this time

METAR text: LTAC 250150Z 01007KT CAVOK 17/13 Q1017 NOSIG RMK RWY21L 36007KT RWY03L 36006KT RWY21R 36007KT
Conditions at: LTAC (ANKARA/ESENBOGA , TR) observed 0150 UTC 25 June 2019
Temperature: 17.0°C (63°F)
Dewpoint: 13.0°C (55°F) [RH = 77%]
Pressure (altimeter): 30.03 inches Hg (1017.0 mb)
Winds: from the N (10 degrees) at 8 MPH (7 knots; 3.6 m/s)
Visibility: 6 or more miles (10+ km)
Ceiling: ceiling and visibility are OK
Clouds: unknown
Weather: no significant weather observed at this time

METAR text: LTAC 250120Z VRB02KT CAVOK 16/13 Q1017 NOSIG RMK RWY21L 36006KT RWY03L 36006KT RWY21R 01008KT
Conditions at: LTAC (ANKARA/ESENBOGA , TR) observed 0120 UTC 25 June 2019
Temperature: 16.0°C (61°F)
Dewpoint: 13.0°C (55°F) [RH = 82%]
Pressure (altimeter): 30.03 inches Hg (1017.0 mb)
Winds: variable direction winds at 2 MPH (2 knots; 1.0 m/s)
Visibility: 6 or more miles (10+ km)
Ceiling: ceiling and visibility are OK
Clouds: unknown
Weather: no significant weather observed at this time

METAR text: LTAC 250050Z 02006KT CAVOK 17/13 Q1017 NOSIG RMK RWY21L 01007KT RWY03L 02005KT RWY21R 01006KT
Conditions at: LTAC (ANKARA/ESENBOGA , TR) observed 0050 UTC 25 June 2019
Temperature: 17.0°C (63°F)
Dewpoint: 13.0°C (55°F) [RH = 77%]
Pressure (altimeter): 30.03 inches Hg (1017.0 mb)
Winds: from the NNE (20 degrees) at 7 MPH (6 knots; 3.1 m/s)
Visibility: 6 or more miles (10+ km)
Ceiling: ceiling and visibility are OK
Clouds: unknown
Weather: no significant weather observed at this time

METAR text: LTAC 250020Z 01006KT CAVOK 16/13 Q1017 NOSIG RMK RWY21L 36006KT RWY03L 36005KT RWY21R 01007KT
Conditions at: LTAC (ANKARA/ESENBOGA , TR) observed 0020 UTC 25 June 2019
Temperature: 16.0°C (61°F)
Dewpoint: 13.0°C (55°F) [RH = 82%]
Pressure (altimeter): 30.03 inches Hg (1017.0 mb)
Winds: from the N (10 degrees) at 7 MPH (6 knots; 3.1 m/s)
Visibility: 6 or more miles (10+ km)
Ceiling: ceiling and visibility are OK
Clouds: unknown
Weather: no significant weather observed at this time

METAR text: LTAC 242350Z 01006KT CAVOK 17/13 Q1017 NOSIG RMK RWY21L 01005KT RWY03L 01005KT RWY21R 02005KT
Conditions at: LTAC (ANKARA/ESENBOGA , TR) observed 2350 UTC 24 June 2019
Temperature: 17.0°C (63°F)
Dewpoint: 13.0°C (55°F) [RH = 77%]
Pressure (altimeter): 30.03 inches Hg (1017.0 mb)
Winds: from the N (10 degrees) at 7 MPH (6 knots; 3.1 m/s)
Visibility: 6 or more miles (10+ km)
Ceiling: ceiling and visibility are OK
Clouds: unknown
Weather: no significant weather observed at this time

METAR text: LTAC 242320Z 35004KT CAVOK 17/13 Q1017 NOSIG RMK RWY21L 01004KT RWY03L 35003KT RWY21R 36006KT
Conditions at: LTAC (ANKARA/ESENBOGA , TR) observed 2320 UTC 24 June 2019
Temperature: 17.0°C (63°F)
Dewpoint: 13.0°C (55°F) [RH = 77%]
Pressure (altimeter): 30.03 inches Hg (1017.0 mb)
Winds: from the N (350 degrees) at 5 MPH (4 knots; 2.1 m/s)
Visibility: 6 or more miles (10+ km)
Ceiling: ceiling and visibility are OK
Clouds: unknown
Weather: no significant weather observed at this time

METAR text: LTAC 242250Z 36005KT CAVOK 17/13 Q1018 NOSIG RMK RWY21L 02004KT RWY03L 35003KT RWY21R 01004KT
Conditions at: LTAC (ANKARA/ESENBOGA , TR) observed 2250 UTC 24 June 2019
Temperature: 17.0°C (63°F)
Dewpoint: 13.0°C (55°F) [RH = 77%]
Pressure (altimeter): 30.06 inches Hg (1018.0 mb)
Winds: from the N (360 degrees) at 6 MPH (5 knots; 2.6 m/s)
Visibility: 6 or more miles (10+ km)
Ceiling: ceiling and visibility are OK
Clouds: unknown
Weather: no significant weather observed at this time

METAR text: LTAC 242220Z 35004KT 320V030 CAVOK 18/13 Q1018 NOSIG RMK RWY21L 01005KT 330V100 RWY03L 34003KT RWY21R 01006KT 340V090
Conditions at: LTAC (ANKARA/ESENBOGA , TR) observed 2220 UTC 24 June 2019
Temperature: 18.0°C (64°F)
Dewpoint: 13.0°C (55°F) [RH = 73%]
Pressure (altimeter): 30.06 inches Hg (1018.0 mb)
Winds: from the N (350 degrees) at 5 MPH (4 knots; 2.1 m/s)
Visibility: 6 or more miles (10+ km)
Ceiling: ceiling and visibility are OK
Clouds: unknown
Weather: no significant weather observed at this time

METAR text: LTAC 242150Z 02006KT CAVOK 18/13 Q1018 NOSIG RMK RWY21L 03004KT 360V070 RWY03L 02004KT RWY21R 08004KT
Conditions at: LTAC (ANKARA/ESENBOGA , TR) observed 2150 UTC 24 June 2019
Temperature: 18.0°C (64°F)
Dewpoint: 13.0°C (55°F) [RH = 73%]
Pressure (altimeter): 30.06 inches Hg (1018.0 mb)
Winds: from the NNE (20 degrees) at 7 MPH (6 knots; 3.1 m/s)
Visibility: 6 or more miles (10+ km)
Ceiling: ceiling and visibility are OK
Clouds: unknown
Weather: no significant weather observed at this time

METAR text: LTAC 242120Z 01004KT CAVOK 20/13 Q1018 NOSIG RMK RWY21L 04004KT RWY03L 35002KT RWY21R 07002KT
Conditions at: LTAC (ANKARA/ESENBOGA , TR) observed 2120 UTC 24 June 2019
Temperature: 20.0°C (68°F)
Dewpoint: 13.0°C (55°F) [RH = 64%]
Pressure (altimeter): 30.06 inches Hg (1018.0 mb)
Winds: from the N (10 degrees) at 5 MPH (4 knots; 2.1 m/s)
Visibility: 6 or more miles (10+ km)
Ceiling: ceiling and visibility are OK
Clouds: unknown
Weather: no significant weather observed at this time

METAR text: LTAC 242050Z VRB02KT CAVOK 19/13 Q1018 NOSIG RMK RWY21L 04005KT RWY03L VRB02KT RWY21R 07001KT
Conditions at: LTAC (ANKARA/ESENBOGA , TR) observed 2050 UTC 24 June 2019
Temperature: 19.0°C (66°F)
Dewpoint: 13.0°C (55°F) [RH = 68%]
Pressure (altimeter): 30.06 inches Hg (1018.0 mb)
Winds: variable direction winds at 2 MPH (2 knots; 1.0 m/s)
Visibility: 6 or more miles (10+ km)
Ceiling: ceiling and visibility are OK
Clouds: unknown
Weather: no significant weather observed at this time

METAR text: LTAC 242020Z 04004KT CAVOK 20/13 Q1018 NOSIG RMK RWY21L 05005KT RWY03L 04003KT RWY21R 08005KT
Conditions at: LTAC (ANKARA/ESENBOGA , TR) observed 2020 UTC 24 June 2019
Temperature: 20.0°C (68°F)
Dewpoint: 13.0°C (55°F) [RH = 64%]
Pressure (altimeter): 30.06 inches Hg (1018.0 mb)
Winds: from the NE (40 degrees) at 5 MPH (4 knots; 2.1 m/s)
Visibility: 6 or more miles (10+ km)
Ceiling: ceiling and visibility are OK
Clouds: unknown
Weather: no significant weather observed at this time

METAR text: LTAC 241950Z 02004KT 350V060 CAVOK 21/12 Q1018 NOSIG RMK RWY21L 08004KT RWY03L VRB01KT RWY21R 09004KT
Conditions at: LTAC (ANKARA/ESENBOGA , TR) observed 1950 UTC 24 June 2019
Temperature: 21.0°C (70°F)
Dewpoint: 12.0°C (54°F) [RH = 56%]
Pressure (altimeter): 30.06 inches Hg (1018.0 mb)
Winds: from the NNE (20 degrees) at 5 MPH (4 knots; 2.1 m/s)
Visibility: 6 or more miles (10+ km)
Ceiling: ceiling and visibility are OK
Clouds: unknown
Weather: no significant weather observed at this time

METAR text: LTAC 241920Z 05006KT CAVOK 21/13 Q1017 NOSIG RMK RWY21L 07004KT RWY03L 05005KT RWY21R 06005KT 030V090
Conditions at: LTAC (ANKARA/ESENBOGA , TR) observed 1920 UTC 24 June 2019
Temperature: 21.0°C (70°F)
Dewpoint: 13.0°C (55°F) [RH = 60%]
Pressure (altimeter): 30.03 inches Hg (1017.0 mb)
Winds: from the NE (50 degrees) at 7 MPH (6 knots; 3.1 m/s)
Visibility: 6 or more miles (10+ km)
Ceiling: ceiling and visibility are OK
Clouds: unknown
Weather: no significant weather observed at this time

METAR text: LTAC 241850Z 05006KT CAVOK 22/13 Q1017 NOSIG RMK RWY21L VRB02KT RWY03L 05006KT RWY21R 03006KT
Conditions at: LTAC (ANKARA/ESENBOGA , TR) observed 1850 UTC 24 June 2019
Temperature: 22.0°C (72°F)
Dewpoint: 13.0°C (55°F) [RH = 57%]
Pressure (altimeter): 30.03 inches Hg (1017.0 mb)
Winds: from the NE (50 degrees) at 7 MPH (6 knots; 3.1 m/s)
Visibility: 6 or more miles (10+ km)
Ceiling: ceiling and visibility are OK
Clouds: unknown
Weather: no significant weather observed at this time

METAR text: LTAC 241820Z 04007KT CAVOK 22/13 Q1017 NOSIG RMK RWY21L 36004KT RWY03L 03006KT RWY21R 01006KT
Conditions at: LTAC (ANKARA/ESENBOGA , TR) observed 1820 UTC 24 June 2019
Temperature: 22.0°C (72°F)
Dewpoint: 13.0°C (55°F) [RH = 57%]
Pressure (altimeter): 30.03 inches Hg (1017.0 mb)
Winds: from the NE (40 degrees) at 8 MPH (7 knots; 3.6 m/s)
Visibility: 6 or more miles (10+ km)
Ceiling: ceiling and visibility are OK
Clouds: unknown
Weather: no significant weather observed at this time

METAR text: LTAC 241750Z 03008KT 9999 FEW040 22/13 Q1016 NOSIG RMK RWY21L 01006KT RWY03L 02005KT RWY21R 02007KT
Conditions at: LTAC (ANKARA/ESENBOGA , TR) observed 1750 UTC 24 June 2019
Temperature: 22.0°C (72°F)
Dewpoint: 13.0°C (55°F) [RH = 57%]
Pressure (altimeter): 30.00 inches Hg (1016.0 mb)
Winds: from the NNE (30 degrees) at 9 MPH (8 knots; 4.1 m/s)
Visibility: 6 or more miles (10+ km)
Ceiling: at least 12,000 feet AGL
Clouds: few clouds at 4000 feet AGL
Weather: no significant weather observed at this time

METAR text: LTAC 241720Z 02007KT 350V050 9999 FEW040 24/12 Q1016 NOSIG RMK RWY21L 01005KT RWY03L 01005KT RWY21R 02007KT
Conditions at: LTAC (ANKARA/ESENBOGA , TR) observed 1720 UTC 24 June 2019
Temperature: 24.0°C (75°F)
Dewpoint: 12.0°C (54°F) [RH = 47%]
Pressure (altimeter): 30.00 inches Hg (1016.0 mb)
Winds: from the NNE (20 degrees) at 8 MPH (7 knots; 3.6 m/s)
Visibility: 6 or more miles (10+ km)
Ceiling: at least 12,000 feet AGL
Clouds: few clouds at 4000 feet AGL
Weather: no significant weather observed at this time

METAR text: LTAC 241650Z 04006KT 9999 FEW040 26/10 Q1016 NOSIG RMK RWY21L 05005KT RWY03L 04005KT RWY21R 06005KT
Conditions at: LTAC (ANKARA/ESENBOGA , TR) observed 1650 UTC 24 June 2019
Temperature: 26.0°C (79°F)
Dewpoint: 10.0°C (50°F) [RH = 37%]
Pressure (altimeter): 30.00 inches Hg (1016.0 mb)
Winds: from the NE (40 degrees) at 7 MPH (6 knots; 3.1 m/s)
Visibility: 6 or more miles (10+ km)
Ceiling: at least 12,000 feet AGL
Clouds: few clouds at 4000 feet AGL
Weather: no significant weather observed at this time

Forecast for: LTAC (ANKARA/ESENBOGA , TR)
Text: TAF LTAC 252240Z 2600/2624 VRB02KT CAVOK
Forecast period: 0000 to 0600 UTC 26 June 2019
Forecast type: FROM: standard forecast or significant change
Winds: variable direction winds at 2 MPH (2 knots; 1.0 m/s)
Visibility: 6 or more miles 10+ km)
Ceiling: unknown
Clouds: missing
Weather: NSW  (no significant weather)
Text: BECMG 2606/2608 SCT040
Forecast period: 0600 to 1800 UTC 26 June 2019
Forecast type: BECOMING: Conditions expected to become as follows by 0800 UTC 26 June 2019
Winds: variable direction winds at 2 MPH (2 knots; 1.0 m/s)
Visibility: 6 or more miles 10+ km)
Ceiling: at least 12,000 feet AGL
Clouds: scattered clouds at 4000 feet AGL
Weather: NSW  (no significant weather)
Text: PROB30
Forecast period: 1300 to 1700 UTC 26 June 2019
Forecast type: TEMPORARY: The following changes expected for less than half the time period
Winds: from the NNE (30 degrees) at 17 MPH (15 knots; 7.7 m/s)
gusting to 29 MPH (25 knots; 12.9 m/s)
Visibility: missing
Ceiling: 3500 feet AGL
Clouds: few clouds at 2500 feet AGL
broken clouds at 3500 feet AGL
Weather: -TSRA  (light rain associated with thunderstorm(s))
Text: TEMPO 2613/2617 03015G25KT -TSRA FEW025CB BKN035
Forecast period: 1800 UTC 26 June 2019 to 0000 UTC 27 June 2019
Forecast type: BECOMING: Conditions expected to become as follows by 2100 UTC 26 June 2019
Winds: variable direction winds at 2 MPH (2 knots; 1.0 m/s)
Visibility: 6 or more miles 10+ km)
Ceiling: unknown
Clouds: missing
Weather: NSW  (no significant weather)